createdAt,value
2017-10-02T00:00:37.876Z,0
2017-10-02T00:01:46.708Z,0
2017-10-02T00:02:55.540Z,0
2017-10-02T00:04:04.373Z,0
2017-10-02T00:05:13.207Z,0
2017-10-02T00:06:22.189Z,0
2017-10-02T00:07:31.026Z,0
2017-10-02T00:08:39.859Z,0
2017-10-02T00:09:48.696Z,0
2017-10-02T00:10:57.529Z,0
2017-10-02T00:12:06.363Z,0
2017-10-02T00:13:15.196Z,0
2017-10-02T00:14:24.357Z,0
2017-10-02T00:15:33.187Z,0
2017-10-02T00:16:42.019Z,0
2017-10-02T00:17:50.953Z,0
2017-10-02T00:18:59.786Z,0
2017-10-02T00:20:08.621Z,0
2017-10-02T00:21:17.454Z,0
2017-10-02T00:22:26.286Z,0
2017-10-02T00:23:35.548Z,0
2017-10-02T00:24:44.382Z,0
2017-10-02T00:25:53.215Z,0
2017-10-02T00:27:02.049Z,0
2017-10-02T00:28:10.879Z,0
2017-10-02T00:29:20.063Z,0
2017-10-02T00:30:28.898Z,0
2017-10-02T00:31:37.730Z,0
2017-10-02T00:32:46.893Z,0
2017-10-02T00:33:55.725Z,0
2017-10-02T00:35:04.607Z,0
2017-10-02T00:36:13.441Z,0
2017-10-02T00:37:22.273Z,0
2017-10-02T00:38:31.109Z,0
2017-10-02T00:39:39.943Z,0
2017-10-02T00:40:48.826Z,0
2017-10-02T00:41:57.659Z,0
2017-10-02T00:43:06.493Z,0
2017-10-02T00:44:15.327Z,0
2017-10-02T00:45:24.162Z,0
2017-10-02T00:46:33.142Z,0
2017-10-02T00:47:41.977Z,0
2017-10-02T00:48:51.144Z,0
2017-10-02T00:50:00.332Z,0
2017-10-02T00:51:09.165Z,0
2017-10-02T00:52:18.051Z,0
2017-10-02T00:53:26.882Z,0
2017-10-02T00:54:35.716Z,0
2017-10-02T00:55:44.904Z,0
2017-10-02T00:56:53.738Z,0
2017-10-02T00:58:02.872Z,0
2017-10-02T00:59:11.704Z,0
2017-10-02T01:00:20.870Z,0
2017-10-02T01:01:29.701Z,0
2017-10-02T01:02:38.868Z,0
2017-10-02T01:03:47.848Z,0
2017-10-02T01:04:56.679Z,0
2017-10-02T01:06:05.512Z,0
2017-10-02T01:07:14.345Z,0
2017-10-02T01:08:23.177Z,0
2017-10-02T01:09:32.310Z,0
2017-10-02T01:10:41.192Z,0
2017-10-02T01:11:50.026Z,0
2017-10-02T01:12:59.191Z,0
2017-10-02T01:14:08.022Z,0
2017-10-02T01:15:17.005Z,0
2017-10-02T01:16:25.838Z,0
2017-10-02T01:17:34.669Z,0
2017-10-02T01:18:43.498Z,0
2017-10-02T01:19:52.331Z,0
2017-10-02T01:21:01.797Z,0
2017-10-02T01:22:10.629Z,0
2017-10-02T01:23:19.461Z,0
2017-10-02T01:24:28.620Z,0
2017-10-02T01:25:37.450Z,0
2017-10-02T01:26:46.584Z,0
2017-10-02T01:27:55.745Z,0
2017-10-02T01:29:04.578Z,0
2017-10-02T01:30:13.413Z,0
2017-10-02T01:31:22.245Z,0
2017-10-02T01:32:31.377Z,0
2017-10-02T01:33:40.209Z,0
2017-10-02T01:34:49.044Z,0
2017-10-02T01:35:57.879Z,0
2017-10-02T01:37:06.712Z,0
2017-10-02T01:38:15.595Z,0
2017-10-02T01:39:24.757Z,0
2017-10-02T01:40:33.592Z,0
2017-10-02T01:41:42.423Z,0
2017-10-02T01:42:51.256Z,0
2017-10-02T01:44:00.191Z,0
2017-10-02T01:45:09.022Z,0
2017-10-02T01:46:17.857Z,0
2017-10-02T01:47:26.691Z,0
2017-10-02T01:48:35.525Z,0
2017-10-02T01:49:44.609Z,0
2017-10-02T01:50:53.440Z,0
2017-10-02T01:52:02.273Z,0
2017-10-02T01:53:11.102Z,0
2017-10-02T01:54:19.936Z,0
2017-10-02T01:55:28.866Z,0
2017-10-02T01:56:37.697Z,0
2017-10-02T01:57:46.531Z,0
2017-10-02T01:58:55.363Z,0
2017-10-02T02:00:04.197Z,0
2017-10-02T02:01:13.184Z,0
2017-10-02T02:02:22.016Z,0
2017-10-02T02:03:30.851Z,0
2017-10-02T02:04:40.017Z,0
2017-10-02T02:05:48.850Z,0
2017-10-02T02:06:57.783Z,0
2017-10-02T02:08:06.632Z,0
2017-10-02T02:09:15.790Z,0
2017-10-02T02:10:24.621Z,0
2017-10-02T02:11:33.454Z,0
2017-10-02T02:12:42.288Z,0
2017-10-02T02:13:51.123Z,0
2017-10-02T02:14:59.955Z,0
2017-10-02T02:16:08.787Z,0
2017-10-02T02:17:17.621Z,0
2017-10-02T02:18:26.553Z,0
2017-10-02T02:19:35.389Z,0
2017-10-02T02:20:44.223Z,0
2017-10-02T02:21:53.058Z,0
2017-10-02T02:23:02.219Z,0
2017-10-02T02:24:11.204Z,0
2017-10-02T02:25:20.366Z,0
2017-10-02T02:26:29.200Z,0
2017-10-02T02:27:38.032Z,0
2017-10-02T02:28:47.192Z,0
2017-10-02T02:29:56.325Z,0
2017-10-02T02:31:05.498Z,0
2017-10-02T02:32:14.662Z,0
2017-10-02T02:33:23.503Z,0
2017-10-02T02:34:32.330Z,0
2017-10-02T02:35:41.162Z,0
2017-10-02T02:36:49.995Z,0
2017-10-02T02:37:58.831Z,0
2017-10-02T02:39:07.664Z,0
2017-10-02T02:40:16.497Z,0
2017-10-02T02:41:25.333Z,0
2017-10-02T02:42:34.167Z,0
2017-10-02T02:43:43.000Z,0
2017-10-02T02:44:51.833Z,0
2017-10-02T02:46:00.668Z,0
2017-10-02T02:47:09.655Z,0
2017-10-02T02:48:18.488Z,0
2017-10-02T02:49:27.323Z,0
2017-10-02T02:50:36.152Z,0
2017-10-02T02:51:44.985Z,0
2017-10-02T02:52:53.868Z,0
2017-10-02T02:54:02.701Z,0
2017-10-02T02:55:11.867Z,0
2017-10-02T02:56:20.700Z,0
2017-10-02T02:57:29.528Z,0
2017-10-02T02:58:38.614Z,0
2017-10-02T02:59:47.448Z,0
2017-10-02T03:00:56.282Z,0
2017-10-02T03:02:05.114Z,0
2017-10-02T03:03:13.948Z,0
2017-10-02T03:04:22.781Z,0
2017-10-02T03:05:31.612Z,0
2017-10-02T03:06:40.778Z,0
2017-10-02T03:07:49.620Z,0
2017-10-02T03:08:58.445Z,0
2017-10-02T03:10:07.327Z,0
2017-10-02T03:11:16.161Z,0
2017-10-02T03:12:24.992Z,0
2017-10-02T03:13:33.824Z,0
2017-10-02T03:14:42.656Z,0
2017-10-02T03:15:51.488Z,0
2017-10-02T03:17:00.321Z,0
2017-10-02T03:18:09.154Z,0
2017-10-02T03:19:17.988Z,0
2017-10-02T03:20:26.818Z,0
2017-10-02T03:21:35.753Z,0
2017-10-02T03:22:44.590Z,0
2017-10-02T03:23:53.753Z,0
2017-10-02T03:25:02.587Z,0
2017-10-02T03:26:11.424Z,0
2017-10-02T03:27:20.356Z,0
2017-10-02T03:28:29.188Z,0
2017-10-02T03:29:38.020Z,0
2017-10-02T03:30:47.205Z,0
2017-10-02T03:31:56.367Z,0
2017-10-02T03:33:05.604Z,0
2017-10-02T03:34:14.436Z,0
2017-10-02T03:35:23.267Z,0
2017-10-02T03:36:32.100Z,0
2017-10-02T03:37:40.933Z,0
2017-10-02T03:38:50.067Z,0
2017-10-02T03:39:58.900Z,0
2017-10-02T03:41:07.731Z,0
2017-10-02T03:42:16.564Z,0
2017-10-02T03:43:25.396Z,0
2017-10-02T03:44:34.329Z,0
2017-10-02T03:45:43.163Z,0
2017-10-02T03:46:51.997Z,0
2017-10-02T03:48:00.831Z,0
2017-10-02T03:49:09.665Z,0
2017-10-02T03:50:18.745Z,0
2017-10-02T03:51:27.577Z,0
2017-10-02T03:52:36.740Z,0
2017-10-02T03:53:45.572Z,0
2017-10-02T03:54:54.404Z,0
2017-10-02T03:56:03.567Z,0
2017-10-02T03:57:12.400Z,0
2017-10-02T03:58:21.232Z,0
2017-10-02T03:59:30.065Z,0
2017-10-02T04:00:38.898Z,0
2017-10-02T04:01:47.783Z,0
2017-10-02T04:02:56.616Z,0
2017-10-02T04:04:05.448Z,0
2017-10-02T04:05:14.281Z,0
2017-10-02T04:06:23.113Z,0
2017-10-02T04:07:32.193Z,0
2017-10-02T04:08:41.026Z,0
2017-10-02T04:09:49.859Z,0
2017-10-02T04:10:59.018Z,0
2017-10-02T04:12:07.848Z,0
2017-10-02T04:13:16.780Z,0
2017-10-02T04:14:25.612Z,0
2017-10-02T04:15:34.442Z,0
2017-10-02T04:16:43.278Z,0
2017-10-02T04:17:52.444Z,0
2017-10-02T04:19:01.329Z,0
2017-10-02T04:20:10.161Z,0
2017-10-02T04:21:18.992Z,0
2017-10-02T04:22:27.826Z,0
2017-10-02T04:23:36.659Z,0
2017-10-02T04:24:45.591Z,0
2017-10-02T04:25:54.421Z,0
2017-10-02T04:27:03.254Z,0
2017-10-02T04:28:12.752Z,0
2017-10-02T04:29:21.923Z,0
2017-10-02T04:30:30.805Z,0
2017-10-02T04:31:39.632Z,0
2017-10-02T04:32:48.796Z,0
2017-10-02T04:33:57.626Z,0
2017-10-02T04:35:06.457Z,0
2017-10-02T04:36:15.437Z,0
2017-10-02T04:37:24.270Z,0
2017-10-02T04:38:33.102Z,0
2017-10-02T04:39:41.935Z,0
2017-10-02T04:40:50.765Z,0
2017-10-02T04:41:59.697Z,0
2017-10-02T04:43:08.529Z,0
2017-10-02T04:44:17.360Z,0
2017-10-02T04:45:26.192Z,0
2017-10-02T04:46:35.025Z,0
2017-10-02T04:47:44.007Z,0
2017-10-02T04:48:52.840Z,0
2017-10-02T04:50:01.670Z,0
2017-10-02T04:51:10.502Z,0
2017-10-02T04:52:19.333Z,0
2017-10-02T04:53:28.215Z,0
2017-10-02T04:54:37.047Z,0
2017-10-02T04:55:45.888Z,0
2017-10-02T04:56:54.721Z,0
2017-10-02T04:58:03.551Z,0
2017-10-02T04:59:12.634Z,0
2017-10-02T05:00:21.469Z,0
2017-10-02T05:01:30.643Z,0
2017-10-02T05:02:39.476Z,0
2017-10-02T05:03:48.308Z,0
2017-10-02T05:04:57.392Z,0
2017-10-02T05:06:06.223Z,0
2017-10-02T05:07:15.051Z,0
2017-10-02T05:08:23.882Z,0
2017-10-02T05:09:32.716Z,0
2017-10-02T05:10:41.699Z,0
2017-10-02T05:11:50.533Z,0
2017-10-02T05:12:59.365Z,0
2017-10-02T05:14:08.198Z,0
2017-10-02T05:15:17.031Z,0
2017-10-02T05:16:25.864Z,0
2017-10-02T05:17:34.696Z,0
2017-10-02T05:18:43.530Z,0
2017-10-02T05:19:52.364Z,0
2017-10-02T05:21:01.524Z,0
2017-10-02T05:22:10.409Z,0
2017-10-02T05:23:19.244Z,0
2017-10-02T05:24:28.076Z,0
2017-10-02T05:25:36.907Z,0
2017-10-02T05:26:45.739Z,0
2017-10-02T05:27:54.571Z,0
2017-10-02T05:29:03.406Z,0
2017-10-02T05:30:12.239Z,0
2017-10-02T05:31:21.401Z,0
2017-10-02T05:32:30.235Z,0
2017-10-02T05:33:39.268Z,0
2017-10-02T05:34:48.101Z,0
2017-10-02T05:35:56.935Z,0
2017-10-02T05:37:06.099Z,0
2017-10-02T05:38:14.931Z,0
2017-10-02T05:39:23.812Z,0
2017-10-02T05:40:32.646Z,0
2017-10-02T05:41:41.476Z,0
2017-10-02T05:42:50.310Z,5
2017-10-02T05:43:59.144Z,5
2017-10-02T05:45:08.027Z,0
2017-10-02T05:46:16.860Z,0
2017-10-02T05:47:25.693Z,0
2017-10-02T05:48:34.527Z,0
2017-10-02T05:49:43.360Z,0
2017-10-02T05:50:52.291Z,0
2017-10-02T05:52:01.128Z,0
2017-10-02T05:53:09.961Z,0
2017-10-02T05:54:18.800Z,0
2017-10-02T05:55:27.961Z,5
2017-10-02T05:56:36.843Z,5
2017-10-02T05:57:45.679Z,5
2017-10-02T05:58:54.527Z,5
2017-10-02T06:00:03.341Z,5
2017-10-02T06:01:12.174Z,5
2017-10-02T06:02:21.062Z,5
2017-10-02T06:03:30.222Z,5
2017-10-02T06:04:39.056Z,5
2017-10-02T06:05:48.218Z,10
2017-10-02T06:06:57.053Z,5
2017-10-02T06:08:06.367Z,5
2017-10-02T06:09:15.200Z,5
2017-10-02T06:10:24.032Z,10
2017-10-02T06:11:32.866Z,10
2017-10-02T06:12:41.700Z,10
2017-10-02T06:13:50.911Z,10
2017-10-02T06:15:00.071Z,10
2017-10-02T06:16:08.908Z,10
2017-10-02T06:17:17.744Z,15
2017-10-02T06:18:26.578Z,15
2017-10-02T06:19:35.563Z,15
2017-10-02T06:20:44.397Z,15
2017-10-02T06:21:53.567Z,15
2017-10-02T06:23:02.400Z,20
2017-10-02T06:24:11.236Z,15
2017-10-02T06:25:20.223Z,15
2017-10-02T06:26:29.055Z,10
2017-10-02T06:27:37.889Z,15
2017-10-02T06:28:46.723Z,20
2017-10-02T06:29:55.556Z,20
2017-10-02T06:31:04.438Z,20
2017-10-02T06:32:13.605Z,15
2017-10-02T06:33:22.437Z,20
2017-10-02T06:34:31.269Z,20
2017-10-02T06:35:40.431Z,25
2017-10-02T06:36:49.364Z,25
2017-10-02T06:37:58.194Z,25
2017-10-02T06:39:07.026Z,25
2017-10-02T06:40:15.861Z,20
2017-10-02T06:41:24.693Z,25
2017-10-02T06:42:33.576Z,30
2017-10-02T06:43:42.411Z,30
2017-10-02T06:44:51.244Z,40
2017-10-02T06:46:00.077Z,30
2017-10-02T06:47:08.910Z,30
2017-10-02T06:48:17.846Z,25
2017-10-02T06:49:26.681Z,30
2017-10-02T06:50:35.512Z,25
2017-10-02T06:51:44.345Z,25
2017-10-02T06:52:53.179Z,30
2017-10-02T06:54:02.063Z,35
2017-10-02T06:55:10.898Z,35
2017-10-02T06:56:19.729Z,35
2017-10-02T06:57:28.565Z,25
2017-10-02T06:58:37.397Z,25
2017-10-02T06:59:46.229Z,20
2017-10-02T07:00:55.062Z,30
2017-10-02T07:02:03.897Z,30
2017-10-02T07:03:12.734Z,25
2017-10-02T07:04:22.227Z,25
2017-10-02T07:05:31.162Z,30
2017-10-02T07:06:39.998Z,25
2017-10-02T07:07:48.831Z,30
2017-10-02T07:08:57.665Z,30
2017-10-02T07:10:06.497Z,35
2017-10-02T07:11:15.481Z,25
2017-10-02T07:12:24.318Z,15
2017-10-02T07:13:33.154Z,10
2017-10-02T07:14:41.990Z,15
2017-10-02T07:15:50.826Z,15
2017-10-02T07:16:59.758Z,35
2017-10-02T07:18:08.922Z,45
2017-10-02T07:19:17.759Z,35
2017-10-02T07:20:26.634Z,20
2017-10-02T07:21:35.469Z,15
2017-10-02T07:22:44.453Z,30
2017-10-02T07:23:53.289Z,45
2017-10-02T07:25:02.120Z,55
2017-10-02T07:26:10.954Z,40
2017-10-02T07:27:19.786Z,25
2017-10-02T07:28:28.921Z,25
2017-10-02T07:29:37.755Z,30
2017-10-02T07:30:46.587Z,30
2017-10-02T07:31:55.422Z,35
2017-10-02T07:33:04.258Z,35
2017-10-02T07:34:13.189Z,30
2017-10-02T07:35:22.022Z,30
2017-10-02T07:36:30.857Z,35
2017-10-02T07:37:39.691Z,35
2017-10-02T07:38:48.524Z,35
2017-10-02T07:39:57.459Z,35
2017-10-02T07:41:06.292Z,45
2017-10-02T07:42:15.124Z,50
2017-10-02T07:43:23.961Z,60
2017-10-02T07:44:32.795Z,50
2017-10-02T07:45:41.651Z,50
2017-10-02T07:46:50.460Z,40
2017-10-02T07:47:59.303Z,35
2017-10-02T07:49:08.139Z,25
2017-10-02T07:50:16.976Z,30
2017-10-02T07:51:25.910Z,40
2017-10-02T07:52:34.747Z,45
2017-10-02T07:53:43.582Z,70
2017-10-02T07:54:52.416Z,60
2017-10-02T07:56:01.251Z,70
2017-10-02T07:57:10.484Z,80
2017-10-02T07:58:19.320Z,75
2017-10-02T07:59:28.152Z,90
2017-10-02T08:00:36.991Z,105
2017-10-02T08:01:45.825Z,120
2017-10-02T08:02:54.819Z,115
2017-10-02T08:04:03.656Z,105
2017-10-02T08:05:12.490Z,100
2017-10-02T08:06:21.324Z,105
2017-10-02T08:07:30.160Z,160
2017-10-02T08:08:39.096Z,155
2017-10-02T08:09:47.930Z,170
2017-10-02T08:10:56.771Z,195
2017-10-02T08:12:05.934Z,185
2017-10-02T08:13:14.769Z,175
2017-10-02T08:14:23.755Z,145
2017-10-02T08:15:32.596Z,110
2017-10-02T08:16:41.433Z,110
2017-10-02T08:17:50.269Z,130
2017-10-02T08:18:59.105Z,95
2017-10-02T08:20:08.092Z,105
2017-10-02T08:21:16.924Z,110
2017-10-02T08:22:25.757Z,100
2017-10-02T08:23:34.622Z,100
2017-10-02T08:24:43.472Z,115
2017-10-02T08:25:52.357Z,135
2017-10-02T08:27:01.194Z,160
2017-10-02T08:28:10.032Z,170
2017-10-02T08:29:18.866Z,230
2017-10-02T08:30:27.710Z,210
2017-10-02T08:31:36.940Z,200
2017-10-02T08:32:46.106Z,205
2017-10-02T08:33:54.939Z,220
2017-10-02T08:35:03.776Z,215
2017-10-02T08:36:12.619Z,180
2017-10-02T08:37:21.456Z,235
2017-10-02T08:38:30.296Z,240
2017-10-02T08:39:39.464Z,230
2017-10-02T08:40:48.299Z,240
2017-10-02T08:41:57.134Z,260
2017-10-02T08:43:05.976Z,255
2017-10-02T08:44:14.813Z,265
2017-10-02T08:45:23.652Z,270
2017-10-02T08:46:32.490Z,260
2017-10-02T08:47:41.327Z,250
2017-10-02T08:48:50.163Z,240
2017-10-02T08:49:58.997Z,240
2017-10-02T08:51:07.834Z,230
2017-10-02T08:52:16.673Z,205
2017-10-02T08:53:25.508Z,190
2017-10-02T08:54:34.494Z,195
2017-10-02T08:55:43.330Z,185
2017-10-02T08:56:52.215Z,175
2017-10-02T08:58:01.053Z,175
2017-10-02T08:59:10.218Z,230
2017-10-02T09:00:19.203Z,265
2017-10-02T09:01:28.038Z,300
2017-10-02T09:02:36.884Z,315
2017-10-02T09:03:45.716Z,360
2017-10-02T09:04:54.551Z,300
2017-10-02T09:06:03.385Z,270
2017-10-02T09:07:12.224Z,210
2017-10-02T09:08:21.071Z,165
2017-10-02T09:09:29.908Z,200
2017-10-02T09:10:38.744Z,255
2017-10-02T09:11:47.680Z,295
2017-10-02T09:12:56.515Z,335
2017-10-02T09:14:05.351Z,385
2017-10-02T09:15:14.199Z,460
2017-10-02T09:16:23.038Z,445
2017-10-02T09:17:31.871Z,420
2017-10-02T09:18:40.708Z,415
2017-10-02T09:19:49.547Z,425
2017-10-02T09:20:58.380Z,440
2017-10-02T09:22:07.217Z,410
2017-10-02T09:23:16.208Z,365
2017-10-02T09:24:25.102Z,295
2017-10-02T09:25:33.938Z,335
2017-10-02T09:26:42.776Z,455
2017-10-02T09:27:51.735Z,455
2017-10-02T09:29:00.571Z,415
2017-10-02T09:30:09.408Z,340
2017-10-02T09:31:18.242Z,395
2017-10-02T09:32:27.089Z,360
2017-10-02T09:33:35.929Z,355
2017-10-02T09:34:44.869Z,335
2017-10-02T09:35:54.035Z,365
2017-10-02T09:37:02.871Z,445
2017-10-02T09:38:12.044Z,420
2017-10-02T09:39:20.891Z,280
2017-10-02T09:40:29.780Z,375
2017-10-02T09:41:38.621Z,530
2017-10-02T09:42:47.786Z,565
2017-10-02T09:43:56.684Z,580
2017-10-02T09:45:05.871Z,570
2017-10-02T09:46:14.811Z,440
2017-10-02T09:47:23.646Z,440
2017-10-02T09:48:32.489Z,355
2017-10-02T09:49:41.338Z,395
2017-10-02T09:50:50.174Z,375
2017-10-02T09:51:59.345Z,365
2017-10-02T09:53:08.181Z,365
2017-10-02T09:54:17.026Z,280
2017-10-02T09:55:25.865Z,300
2017-10-02T09:56:34.705Z,395
2017-10-02T09:57:43.589Z,390
2017-10-02T09:58:52.424Z,355
2017-10-02T10:00:01.260Z,510
2017-10-02T10:01:10.097Z,485
2017-10-02T10:02:18.936Z,515
2017-10-02T10:03:27.824Z,480
2017-10-02T10:04:36.672Z,565
2017-10-02T10:05:45.508Z,550
2017-10-02T10:06:54.348Z,485
2017-10-02T10:08:03.194Z,405
2017-10-02T10:09:12.129Z,350
2017-10-02T10:10:20.975Z,360
2017-10-02T10:11:29.814Z,355
2017-10-02T10:12:38.659Z,300
2017-10-02T10:13:47.505Z,315
2017-10-02T10:14:56.644Z,335
2017-10-02T10:16:05.485Z,335
2017-10-02T10:17:14.320Z,410
2017-10-02T10:18:23.158Z,465
2017-10-02T10:19:32.000Z,355
2017-10-02T10:20:40.848Z,340
2017-10-02T10:21:49.712Z,320
2017-10-02T10:22:58.554Z,295
2017-10-02T10:24:07.629Z,210
2017-10-02T10:25:16.825Z,165
2017-10-02T10:26:25.664Z,160
2017-10-02T10:27:34.504Z,165
2017-10-02T10:28:43.343Z,160
2017-10-02T10:29:52.188Z,175
2017-10-02T10:31:01.021Z,155
2017-10-02T10:32:09.873Z,140
2017-10-02T10:33:18.729Z,150
2017-10-02T10:34:27.566Z,130
2017-10-02T10:35:36.404Z,130
2017-10-02T10:36:45.245Z,100
2017-10-02T10:37:54.085Z,105
2017-10-02T10:39:02.923Z,135
2017-10-02T10:40:11.764Z,105
2017-10-02T10:41:20.702Z,95
2017-10-02T10:42:29.541Z,95
2017-10-02T10:43:38.376Z,110
2017-10-02T10:44:47.216Z,145
2017-10-02T10:45:56.383Z,165
2017-10-02T10:47:05.320Z,195
2017-10-02T10:48:14.159Z,200
2017-10-02T10:49:22.997Z,215
2017-10-02T10:50:31.833Z,215
2017-10-02T10:51:40.670Z,210
2017-10-02T10:52:49.806Z,235
2017-10-02T10:53:58.646Z,270
2017-10-02T10:55:07.593Z,320
2017-10-02T10:56:16.428Z,305
2017-10-02T10:57:25.266Z,365
2017-10-02T10:58:34.106Z,405
2017-10-02T10:59:42.941Z,430
2017-10-02T11:00:51.772Z,475
2017-10-02T11:02:00.607Z,420
2017-10-02T11:03:09.443Z,470
2017-10-02T11:04:18.279Z,445
2017-10-02T11:05:27.114Z,470
2017-10-02T11:06:35.951Z,470
2017-10-02T11:07:44.789Z,465
2017-10-02T11:08:53.624Z,465
2017-10-02T11:10:02.542Z,500
2017-10-02T11:11:11.427Z,600
2017-10-02T11:12:20.267Z,595
2017-10-02T11:13:29.104Z,570
2017-10-02T11:14:37.944Z,620
2017-10-02T11:15:47.311Z,600
2017-10-02T11:16:56.150Z,660
2017-10-02T11:18:04.988Z,575
2017-10-02T11:19:13.824Z,715
2017-10-02T11:20:22.994Z,700
2017-10-02T11:21:32.082Z,630
2017-10-02T11:22:40.918Z,525
2017-10-02T11:23:49.757Z,470
2017-10-02T11:24:58.594Z,475
2017-10-02T11:26:07.432Z,440
2017-10-02T11:27:16.467Z,400
2017-10-02T11:28:25.304Z,360
2017-10-02T11:29:34.147Z,355
2017-10-02T11:30:42.987Z,360
2017-10-02T11:31:51.822Z,350
2017-10-02T11:33:00.758Z,330
2017-10-02T11:34:09.592Z,315
2017-10-02T11:35:18.428Z,315
2017-10-02T11:36:27.266Z,330
2017-10-02T11:37:36.103Z,350
2017-10-02T11:38:44.991Z,355
2017-10-02T11:39:53.826Z,405
2017-10-02T11:41:02.661Z,485
2017-10-02T11:42:11.498Z,515
2017-10-02T11:43:20.333Z,530
2017-10-02T11:44:29.468Z,510
2017-10-02T11:45:38.305Z,460
2017-10-02T11:46:47.145Z,385
2017-10-02T11:47:55.978Z,315
2017-10-02T11:49:04.816Z,270
2017-10-02T11:50:13.987Z,265
2017-10-02T11:51:22.824Z,265
2017-10-02T11:52:31.661Z,265
2017-10-02T11:53:40.497Z,335
2017-10-02T11:54:49.334Z,440
2017-10-02T11:55:58.270Z,500
2017-10-02T11:57:07.108Z,515
2017-10-02T11:58:15.942Z,515
2017-10-02T11:59:24.779Z,520
2017-10-02T12:00:33.617Z,525
2017-10-02T12:01:42.605Z,535
2017-10-02T12:02:51.442Z,530
2017-10-02T12:04:00.278Z,545
2017-10-02T12:05:09.116Z,575
2017-10-02T12:06:17.955Z,560
2017-10-02T12:07:26.799Z,525
2017-10-02T12:08:35.636Z,500
2017-10-02T12:09:44.472Z,515
2017-10-02T12:10:53.314Z,540
2017-10-02T12:12:02.152Z,595
2017-10-02T12:13:11.038Z,575
2017-10-02T12:14:19.877Z,590
2017-10-02T12:15:28.713Z,585
2017-10-02T12:16:37.551Z,585
2017-10-02T12:17:46.722Z,545
2017-10-02T12:18:55.614Z,530
2017-10-02T12:20:04.450Z,505
2017-10-02T12:21:13.293Z,520
2017-10-02T12:22:22.461Z,545
2017-10-02T12:23:31.298Z,565
2017-10-02T12:24:40.184Z,550
2017-10-02T12:25:49.027Z,495
2017-10-02T12:26:57.866Z,475
2017-10-02T12:28:06.705Z,330
2017-10-02T12:29:15.544Z,255
2017-10-02T12:30:24.533Z,225
2017-10-02T12:31:33.371Z,245
2017-10-02T12:32:42.541Z,345
2017-10-02T12:33:51.378Z,430
2017-10-02T12:35:00.216Z,405
2017-10-02T12:36:09.052Z,335
2017-10-02T12:37:18.223Z,320
2017-10-02T12:38:27.070Z,305
2017-10-02T12:39:35.906Z,270
2017-10-02T12:40:44.745Z,235
2017-10-02T12:41:53.735Z,205
2017-10-02T12:43:02.908Z,160
2017-10-02T12:44:11.744Z,170
2017-10-02T12:45:20.582Z,185
2017-10-02T12:46:29.419Z,170
2017-10-02T12:47:38.695Z,195
2017-10-02T12:48:47.536Z,185
2017-10-02T12:49:56.377Z,195
2017-10-02T12:51:05.216Z,255
2017-10-02T12:52:14.053Z,295
2017-10-02T12:53:22.939Z,335
2017-10-02T12:54:31.776Z,315
2017-10-02T12:55:40.615Z,195
2017-10-02T12:56:49.451Z,155
2017-10-02T12:57:58.287Z,150
2017-10-02T12:59:07.174Z,160
2017-10-02T13:00:16.064Z,185
2017-10-02T13:01:24.901Z,235
2017-10-02T13:02:33.742Z,265
2017-10-02T13:03:42.576Z,315
2017-10-02T13:04:51.562Z,315
2017-10-02T13:06:00.400Z,250
2017-10-02T13:07:09.238Z,260
2017-10-02T13:08:18.076Z,260
2017-10-02T13:09:26.914Z,375
2017-10-02T13:10:35.804Z,460
2017-10-02T13:11:44.641Z,550
2017-10-02T13:12:53.479Z,615
2017-10-02T13:14:02.313Z,555
2017-10-02T13:15:11.148Z,535
2017-10-02T13:16:20.084Z,465
2017-10-02T13:17:28.922Z,375
2017-10-02T13:18:37.759Z,385
2017-10-02T13:19:46.597Z,435
2017-10-02T13:20:55.435Z,465
2017-10-02T13:22:04.421Z,450
2017-10-02T13:23:13.257Z,375
2017-10-02T13:24:22.095Z,360
2017-10-02T13:25:30.933Z,490
2017-10-02T13:26:39.770Z,415
2017-10-02T13:27:48.859Z,410
2017-10-02T13:28:58.032Z,460
2017-10-02T13:30:06.870Z,460
2017-10-02T13:31:15.707Z,440
2017-10-02T13:32:24.545Z,415
2017-10-02T13:33:33.773Z,400
2017-10-02T13:34:42.610Z,360
2017-10-02T13:35:51.447Z,285
2017-10-02T13:37:00.286Z,230
2017-10-02T13:38:09.125Z,230
2017-10-02T13:39:17.959Z,215
2017-10-02T13:40:26.795Z,200
2017-10-02T13:41:35.631Z,205
2017-10-02T13:42:44.470Z,285
2017-10-02T13:43:53.307Z,450
2017-10-02T13:45:02.244Z,490
2017-10-02T13:46:11.082Z,395
2017-10-02T13:47:19.918Z,350
2017-10-02T13:48:28.756Z,345
2017-10-02T13:49:37.595Z,365
2017-10-02T13:50:46.533Z,355
2017-10-02T13:51:55.370Z,375
2017-10-02T13:53:04.210Z,290
2017-10-02T13:54:13.385Z,265
2017-10-02T13:55:22.222Z,250
2017-10-02T13:56:31.108Z,270
2017-10-02T13:57:39.945Z,280
2017-10-02T13:58:48.782Z,310
2017-10-02T13:59:57.620Z,365
2017-10-02T14:01:06.457Z,350
2017-10-02T14:02:15.296Z,300
2017-10-02T14:03:24.134Z,270
2017-10-02T14:04:32.970Z,240
2017-10-02T14:05:41.805Z,245
2017-10-02T14:06:50.640Z,305
2017-10-02T14:07:59.625Z,405
2017-10-02T14:09:08.790Z,520
2017-10-02T14:10:17.628Z,535
2017-10-02T14:11:26.465Z,480
2017-10-02T14:12:35.301Z,520
2017-10-02T14:13:44.189Z,470
2017-10-02T14:14:53.026Z,445
2017-10-02T14:16:01.862Z,440
2017-10-02T14:17:10.699Z,365
2017-10-02T14:18:19.537Z,345
2017-10-02T14:19:28.475Z,355
2017-10-02T14:20:37.317Z,325
2017-10-02T14:21:46.161Z,310
2017-10-02T14:22:55.326Z,215
2017-10-02T14:24:04.163Z,205
2017-10-02T14:25:13.123Z,210
2017-10-02T14:26:21.939Z,215
2017-10-02T14:27:30.778Z,230
2017-10-02T14:28:39.614Z,235
2017-10-02T14:29:48.451Z,240
2017-10-02T14:30:57.390Z,265
2017-10-02T14:32:06.227Z,340
2017-10-02T14:33:15.066Z,410
2017-10-02T14:34:23.901Z,480
2017-10-02T14:35:32.745Z,530
2017-10-02T14:36:41.625Z,530
2017-10-02T14:37:50.472Z,400
2017-10-02T14:38:59.308Z,270
2017-10-02T14:40:08.146Z,205
2017-10-02T14:41:16.983Z,185
2017-10-02T14:42:25.821Z,210
2017-10-02T14:43:34.988Z,230
2017-10-02T14:44:43.824Z,245
2017-10-02T14:45:52.667Z,240
2017-10-02T14:47:01.508Z,215
2017-10-02T14:48:10.671Z,195
2017-10-02T14:49:19.509Z,175
2017-10-02T14:50:28.348Z,155
2017-10-02T14:51:37.184Z,145
2017-10-02T14:52:46.022Z,145
2017-10-02T14:53:55.007Z,145
2017-10-02T14:55:03.845Z,165
2017-10-02T14:56:12.681Z,195
2017-10-02T14:57:21.518Z,190
2017-10-02T14:58:30.353Z,145
2017-10-02T14:59:39.339Z,130
2017-10-02T15:00:48.172Z,120
2017-10-02T15:01:57.009Z,125
2017-10-02T15:03:05.846Z,125
2017-10-02T15:04:14.681Z,120
2017-10-02T15:05:23.519Z,100
2017-10-02T15:06:32.356Z,90
2017-10-02T15:07:41.191Z,70
2017-10-02T15:08:50.023Z,65
2017-10-02T15:09:58.857Z,70
2017-10-02T15:11:07.791Z,80
2017-10-02T15:12:16.629Z,90
2017-10-02T15:13:25.465Z,95
2017-10-02T15:14:34.633Z,95
2017-10-02T15:15:43.468Z,90
2017-10-02T15:16:52.611Z,90
2017-10-02T15:18:01.440Z,85
2017-10-02T15:19:10.274Z,70
2017-10-02T15:20:19.108Z,60
2017-10-02T15:21:27.942Z,50
2017-10-02T15:22:36.936Z,50
2017-10-02T15:23:45.765Z,65
2017-10-02T15:24:54.599Z,75
2017-10-02T15:26:03.435Z,80
2017-10-02T15:27:12.271Z,90
2017-10-02T15:28:21.107Z,105
2017-10-02T15:29:29.943Z,110
2017-10-02T15:30:38.784Z,115
2017-10-02T15:31:47.621Z,100
2017-10-02T15:32:56.457Z,70
2017-10-02T15:34:05.292Z,60
2017-10-02T15:35:14.126Z,60
2017-10-02T15:36:22.961Z,75
2017-10-02T15:37:31.800Z,85
2017-10-02T15:38:40.637Z,85
2017-10-02T15:39:49.520Z,100
2017-10-02T15:40:58.685Z,90
2017-10-02T15:42:07.519Z,80
2017-10-02T15:43:16.353Z,85
2017-10-02T15:44:25.191Z,80
2017-10-02T15:45:34.172Z,80
2017-10-02T15:46:43.012Z,70
2017-10-02T15:47:51.839Z,65
2017-10-02T15:49:00.673Z,70
2017-10-02T15:50:09.510Z,85
2017-10-02T15:51:18.395Z,95
2017-10-02T15:52:27.231Z,105
2017-10-02T15:53:36.069Z,95
2017-10-02T15:54:44.911Z,90
2017-10-02T15:55:53.746Z,75
2017-10-02T15:57:02.885Z,75
2017-10-02T15:58:11.719Z,75
2017-10-02T15:59:20.553Z,70
2017-10-02T16:00:29.388Z,65
2017-10-02T16:01:38.225Z,50
2017-10-02T16:02:47.116Z,45
2017-10-02T16:03:55.953Z,40
2017-10-02T16:05:04.790Z,35
2017-10-02T16:06:13.625Z,35
2017-10-02T16:07:22.792Z,35
2017-10-02T16:08:31.678Z,35
2017-10-02T16:09:40.509Z,40
2017-10-02T16:10:49.346Z,35
2017-10-02T16:11:58.182Z,25
2017-10-02T16:13:07.019Z,15
2017-10-02T16:14:15.905Z,15
2017-10-02T16:15:24.741Z,15
2017-10-02T16:16:33.577Z,15
2017-10-02T16:17:42.413Z,10
2017-10-02T16:18:51.246Z,5
2017-10-02T16:20:00.081Z,5